createdAt,value
2024-02-17T00:00:50.447Z,10.23
2024-02-17T00:05:03.578Z,10.23
2024-02-17T00:09:15.574Z,10.20
2024-02-17T00:13:27.358Z,10.07
2024-02-17T00:17:39.304Z,10.11
2024-02-17T00:21:51.110Z,9.95
2024-02-17T00:26:02.981Z,10.12
2024-02-17T00:30:17.175Z,10.21
2024-02-17T00:34:29.545Z,10.25
2024-02-17T00:38:41.337Z,10.26
2024-02-17T00:42:53.105Z,10.31
2024-02-17T00:47:05.003Z,10.37
2024-02-17T00:51:16.931Z,10.24
2024-02-17T00:55:28.669Z,10.41
2024-02-17T00:59:40.479Z,10.37
2024-02-17T01:03:52.323Z,10.42
2024-02-17T01:08:04.316Z,10.36
2024-02-17T01:12:16.697Z,10.45
2024-02-17T01:16:28.452Z,10.45
2024-02-17T01:20:40.301Z,10.37
2024-02-17T01:24:52.058Z,10.46
2024-02-17T01:29:04.470Z,10.44
2024-02-17T01:33:17.044Z,10.42
2024-02-17T01:37:28.851Z,10.44
2024-02-17T01:41:40.672Z,10.47
2024-02-17T01:45:52.490Z,10.44
2024-02-17T01:50:05.488Z,10.52
2024-02-17T01:54:19.156Z,10.38
2024-02-17T01:58:31.047Z,10.47
2024-02-17T02:02:46.579Z,10.45
2024-02-17T02:06:59.410Z,10.50
2024-02-17T02:11:11.278Z,10.45
2024-02-17T02:15:29.864Z,10.44
2024-02-17T02:19:48.983Z,10.43
2024-02-17T02:24:00.822Z,10.44
2024-02-17T02:28:12.638Z,10.35
2024-02-17T02:32:27.679Z,10.46
2024-02-17T02:36:39.613Z,10.35
2024-02-17T02:40:51.414Z,10.44
2024-02-17T02:45:07.733Z,10.40
2024-02-17T02:49:19.778Z,10.44
2024-02-17T02:53:31.674Z,10.36
2024-02-17T02:57:43.483Z,10.32
2024-02-17T03:01:55.407Z,10.24
2024-02-17T03:06:07.373Z,10.39
2024-02-17T03:10:19.408Z,10.38
2024-02-17T03:14:31.273Z,10.45
2024-02-17T03:18:43.077Z,10.34
2024-02-17T03:22:54.900Z,10.39
2024-02-17T03:27:06.653Z,10.38
2024-02-17T03:31:19.466Z,10.26
2024-02-17T03:35:31.234Z,10.40
2024-02-17T03:39:43.024Z,10.27
2024-02-17T03:43:54.768Z,10.42
2024-02-17T03:48:07.061Z,10.50
2024-02-17T03:52:18.990Z,10.42
2024-02-17T03:56:30.738Z,10.41
2024-02-17T04:00:42.586Z,10.42
2024-02-17T04:04:54.512Z,10.41
2024-02-17T04:09:08.052Z,10.43
2024-02-17T04:13:20.118Z,10.39
2024-02-17T04:17:31.852Z,10.35
2024-02-17T04:21:44.914Z,10.37
2024-02-17T04:25:58.895Z,10.43
2024-02-17T04:30:11.017Z,10.39
2024-02-17T04:34:22.900Z,10.24
2024-02-17T04:38:35.150Z,10.36
2024-02-17T04:42:46.994Z,10.24
2024-02-17T04:46:59.516Z,10.39
2024-02-17T04:51:11.234Z,10.37
2024-02-17T04:55:24.609Z,10.31
2024-02-17T04:59:36.326Z,10.35
2024-02-17T05:03:48.188Z,10.39
2024-02-17T05:07:59.887Z,10.38
2024-02-17T05:12:11.658Z,10.39
2024-02-17T05:16:23.442Z,10.42
2024-02-17T05:20:35.126Z,10.29
2024-02-17T05:24:47.131Z,10.40
2024-02-17T05:28:58.915Z,10.34
2024-02-17T05:33:10.794Z,10.12
2024-02-17T05:37:23.238Z,10.27
2024-02-17T05:41:34.935Z,10.21
2024-02-17T05:45:48.715Z,10.20
2024-02-17T05:50:04.661Z,10.24
2024-02-17T05:54:20.516Z,10.29
2024-02-17T05:58:32.274Z,10.25
2024-02-17T06:02:43.983Z,10.35
2024-02-17T06:06:55.836Z,10.34
2024-02-17T06:11:07.925Z,10.36
2024-02-17T06:15:19.740Z,10.38
2024-02-17T06:19:50.271Z,10.40
2024-02-17T06:24:04.021Z,10.30
2024-02-17T06:28:15.763Z,10.25
2024-02-17T06:32:27.800Z,10.22
2024-02-17T06:36:41.718Z,10.20
2024-02-17T06:41:20.290Z,10.26
2024-02-17T06:45:32.055Z,10.15
2024-02-17T06:49:43.986Z,10.12
2024-02-17T06:53:55.706Z,10.12
2024-02-17T06:58:07.450Z,10.21
2024-02-17T07:02:25.147Z,10.09
2024-02-17T07:06:37.346Z,10.14
2024-02-17T07:10:49.244Z,10.13
2024-02-17T07:15:01.033Z,10.18
2024-02-17T07:19:12.801Z,10.21
2024-02-17T07:23:30.093Z,10.26
2024-02-17T07:27:41.916Z,10.23
2024-02-17T07:31:53.657Z,10.38
2024-02-17T07:36:05.924Z,10.43
2024-02-17T07:40:17.653Z,10.59
2024-02-17T07:44:29.427Z,10.66
2024-02-17T07:48:43.311Z,10.72
2024-02-17T07:52:55.351Z,10.77
2024-02-17T07:57:07.288Z,10.61
2024-02-17T08:01:21.020Z,10.82
2024-02-17T08:05:34.101Z,10.96
2024-02-17T08:09:46.171Z,11.18
2024-02-17T08:13:58.481Z,11.27
2024-02-17T08:18:10.320Z,11.41
2024-02-17T08:22:22.262Z,11.52
2024-02-17T08:26:34.794Z,11.47
2024-02-17T08:30:46.732Z,11.41
2024-02-17T08:34:58.990Z,11.57
2024-02-17T08:39:10.948Z,11.58
2024-02-17T08:43:23.035Z,11.54
2024-02-17T08:47:35.178Z,11.74
2024-02-17T08:51:46.977Z,11.73
2024-02-17T08:55:58.752Z,11.72
2024-02-17T09:00:11.156Z,11.70
2024-02-17T09:04:23.067Z,11.81
2024-02-17T09:08:34.785Z,11.74
2024-02-17T09:12:46.693Z,11.96
2024-02-17T09:16:58.515Z,11.89
2024-02-17T09:21:10.357Z,12.02
2024-02-17T09:25:22.151Z,12.07
2024-02-17T09:29:33.926Z,12.19
2024-02-17T09:33:45.937Z,12.27
2024-02-17T09:37:57.746Z,12.45
2024-02-17T09:42:09.562Z,12.61
2024-02-17T09:46:26.206Z,12.81
2024-02-17T09:50:39.728Z,12.90
2024-02-17T09:54:51.908Z,13.12
2024-02-17T09:59:03.961Z,13.23
2024-02-17T10:03:16.362Z,13.22
2024-02-17T10:07:29.681Z,13.39
2024-02-17T10:11:41.545Z,13.51
2024-02-17T10:15:53.336Z,13.63
2024-02-17T10:20:05.681Z,13.65
2024-02-17T10:24:17.467Z,13.70
2024-02-17T10:28:32.228Z,13.73
2024-02-17T10:32:44.357Z,13.72
2024-02-17T10:36:56.510Z,13.83
2024-02-17T10:41:08.957Z,13.93
2024-02-17T10:45:20.817Z,14.10
2024-02-17T10:49:45.536Z,14.18
2024-02-17T10:54:03.305Z,14.27
2024-02-17T10:58:18.513Z,14.38
2024-02-17T11:02:31.844Z,14.41
2024-02-17T11:06:44.204Z,14.30
2024-02-17T11:10:55.891Z,14.27
2024-02-17T11:15:12.805Z,14.15
2024-02-17T11:19:35.301Z,14.02
2024-02-17T11:23:50.570Z,14.11
2024-02-17T11:28:18.119Z,14.20
2024-02-17T11:32:30.032Z,14.18
2024-02-17T11:36:41.863Z,14.20
2024-02-17T11:40:55.679Z,14.17
2024-02-17T11:45:07.840Z,14.00
2024-02-17T11:49:25.663Z,14.28
2024-02-17T11:53:40.592Z,14.27
2024-02-17T11:57:56.756Z,14.21
2024-02-17T12:02:11.837Z,14.07
2024-02-17T12:06:26.486Z,14.01
2024-02-17T12:10:38.164Z,14.01
2024-02-17T12:14:53.279Z,13.99
2024-02-17T12:19:13.163Z,13.89
2024-02-17T12:23:26.937Z,13.66
2024-02-17T12:27:39.616Z,13.87
2024-02-17T12:31:57.648Z,13.99
2024-02-17T12:36:15.676Z,14.05
2024-02-17T12:40:27.435Z,14.22
2024-02-17T12:44:39.190Z,14.41
2024-02-17T12:48:51.651Z,14.44
2024-02-17T12:53:24.127Z,14.73
2024-02-17T12:57:35.895Z,14.67
2024-02-17T13:01:47.941Z,14.83
2024-02-17T13:06:00.871Z,14.80
2024-02-17T13:10:12.543Z,14.49
2024-02-17T13:14:24.234Z,14.44
2024-02-17T13:18:36.341Z,14.42
2024-02-17T13:22:48.376Z,14.29
2024-02-17T13:27:00.001Z,14.16
2024-02-17T13:31:12.304Z,14.10
2024-02-17T13:35:25.766Z,14.12
2024-02-17T13:39:37.658Z,14.02
2024-02-17T13:43:50.162Z,13.79
2024-02-17T13:48:08.933Z,13.79
2024-02-17T13:52:20.544Z,13.71
2024-02-17T13:56:32.129Z,13.75
2024-02-17T14:00:44.244Z,14.04
2024-02-17T14:05:02.139Z,14.12
2024-02-17T14:09:13.897Z,14.18
2024-02-17T14:13:25.571Z,14.17
2024-02-17T14:17:37.302Z,14.32
2024-02-17T14:21:49.088Z,14.35
2024-02-17T14:26:00.699Z,14.36
2024-02-17T14:30:13.017Z,14.19
2024-02-17T14:34:24.734Z,14.19
2024-02-17T14:38:36.400Z,14.39
2024-02-17T14:42:48.770Z,14.35
2024-02-17T14:47:00.477Z,14.14
2024-02-17T14:51:12.155Z,14.26
2024-02-17T14:55:24.175Z,14.00
2024-02-17T14:59:35.766Z,14.12
2024-02-17T15:03:48.441Z,14.45
2024-02-17T15:08:00.243Z,14.28
2024-02-17T15:12:11.980Z,14.40
2024-02-17T15:16:23.789Z,14.35
2024-02-17T15:20:35.361Z,14.22
2024-02-17T15:24:47.090Z,14.17
2024-02-17T15:29:00.640Z,13.98
2024-02-17T15:33:16.003Z,14.04
2024-02-17T15:37:27.725Z,14.00
2024-02-17T15:41:39.493Z,14.01
2024-02-17T15:45:51.214Z,13.97
2024-02-17T15:50:03.014Z,13.72
2024-02-17T15:54:14.728Z,13.55
2024-02-17T15:58:29.193Z,13.57
2024-02-17T16:02:40.940Z,13.49
2024-02-17T16:06:52.619Z,13.58
2024-02-17T16:11:05.447Z,13.55
2024-02-17T16:15:19.545Z,13.49
2024-02-17T16:19:31.815Z,13.20
2024-02-17T16:23:43.568Z,13.18
2024-02-17T16:27:55.383Z,13.28
2024-02-17T16:32:07.287Z,13.21
2024-02-17T16:36:18.918Z,13.15
2024-02-17T16:40:30.529Z,13.01
2024-02-17T16:44:42.665Z,12.88
2024-02-17T16:48:54.517Z,12.75
2024-02-17T16:53:06.215Z,12.50
2024-02-17T16:57:17.882Z,12.42
2024-02-17T17:01:29.555Z,12.32
2024-02-17T17:05:44.155Z,11.93
2024-02-17T17:09:56.583Z,11.82
2024-02-17T17:14:08.304Z,11.87
2024-02-17T17:18:20.065Z,11.76
2024-02-17T17:22:42.632Z,11.70
2024-02-17T17:26:58.889Z,11.50
2024-02-17T17:31:10.583Z,11.67
2024-02-17T17:35:23.163Z,11.56
2024-02-17T17:39:34.879Z,11.55
2024-02-17T17:43:47.051Z,11.30
2024-02-17T17:48:00.717Z,11.14
2024-02-17T17:52:12.736Z,11.28
2024-02-17T17:56:24.699Z,11.30
2024-02-17T18:00:36.464Z,11.32
2024-02-17T18:04:48.209Z,11.31
2024-02-17T18:08:59.993Z,11.23
2024-02-17T18:13:11.712Z,11.30
2024-02-17T18:17:23.452Z,11.37
2024-02-17T18:21:35.157Z,11.50
2024-02-17T18:25:46.769Z,11.56
2024-02-17T18:29:58.408Z,11.51
2024-02-17T18:34:10.064Z,11.43
2024-02-17T18:38:21.858Z,11.57
2024-02-17T18:42:33.588Z,11.58
2024-02-17T18:46:48.925Z,11.62
2024-02-17T18:51:00.672Z,11.65
2024-02-17T18:55:13.663Z,11.65
2024-02-17T18:59:25.246Z,11.46
2024-02-17T19:03:36.970Z,11.43
2024-02-17T19:07:58.916Z,11.65
2024-02-17T19:12:13.172Z,11.55
2024-02-17T19:16:25.235Z,11.64
2024-02-17T19:20:42.523Z,11.64
2024-02-17T19:24:54.599Z,11.69
2024-02-17T19:29:09.208Z,11.62
2024-02-17T19:33:25.345Z,11.58
2024-02-17T19:37:39.787Z,11.72
2024-02-17T19:42:19.659Z,11.59
2024-02-17T19:46:34.789Z,11.65
2024-02-17T19:50:51.812Z,11.59
2024-02-17T19:55:03.928Z,11.57
2024-02-17T19:59:16.449Z,11.61
2024-02-17T20:03:36.344Z,11.64
2024-02-17T20:12:39.579Z,11.79
2024-02-17T20:16:54.148Z,11.82
2024-02-17T20:21:11.706Z,11.85
2024-02-17T20:25:24.954Z,11.83
2024-02-17T20:29:37.850Z,11.85
2024-02-17T20:33:50.172Z,11.72
2024-02-17T20:38:02.238Z,11.70
2024-02-17T20:42:14.018Z,11.85
2024-02-17T20:46:25.828Z,11.76
2024-02-17T20:50:38.094Z,11.87
2024-02-17T20:54:50.135Z,11.88
2024-02-17T20:59:13.305Z,11.89
2024-02-17T21:03:32.941Z,11.83
2024-02-17T21:07:44.939Z,11.70
2024-02-17T21:11:57.001Z,11.65
2024-02-17T21:16:10.414Z,11.86
2024-02-17T21:20:22.474Z,11.70
2024-02-17T21:24:34.404Z,11.77
2024-02-17T21:28:46.230Z,11.81
2024-02-17T21:32:58.052Z,11.73
2024-02-17T21:37:09.845Z,11.73
2024-02-17T21:41:21.630Z,11.70
2024-02-17T21:45:33.427Z,11.66
2024-02-17T21:49:45.334Z,11.63
2024-02-17T21:53:57.087Z,11.65
2024-02-17T21:58:08.852Z,11.68
2024-02-17T22:02:20.876Z,11.66
2024-02-17T22:06:33.441Z,11.61
2024-02-17T22:10:45.259Z,11.75
2024-02-17T22:14:56.953Z,11.75
2024-02-17T22:19:08.811Z,11.72
2024-02-17T22:23:20.617Z,11.83
2024-02-17T22:27:32.646Z,11.83
2024-02-17T22:31:44.413Z,11.78
2024-02-17T22:35:56.319Z,11.80
2024-02-17T22:40:08.987Z,11.75
2024-02-17T22:44:20.784Z,11.69
2024-02-17T22:48:32.739Z,11.70
2024-02-17T22:52:44.940Z,11.85
2024-02-17T22:56:56.775Z,11.81
2024-02-17T23:01:08.632Z,11.78
2024-02-17T23:05:25.845Z,11.81
2024-02-17T23:09:38.009Z,11.72
2024-02-17T23:13:49.796Z,11.78
2024-02-17T23:18:01.825Z,11.70
2024-02-17T23:22:13.746Z,11.77
2024-02-17T23:26:25.622Z,11.68
2024-02-17T23:30:37.521Z,11.78
2024-02-17T23:34:49.533Z,11.75
2024-02-17T23:39:01.563Z,11.68
2024-02-17T23:43:13.323Z,11.59
2024-02-17T23:47:25.379Z,11.51
2024-02-17T23:51:37.231Z,11.54
2024-02-17T23:55:48.953Z,11.56
